Time;durP1;ratioP1;P1;durP2;ratioP2;P2;SDS_P1;SDS_P2;PMS_P1;PMS_P2;Temp;Humidity;BMP_temperature;BMP_pressure;BME280_temperature;BME280_humidity;BME280_pressure;Samples;Min_cycle;Max_cycle;Signal;HPM_P1;HPM_P2
2023/06/22 00:01:08;;;;;;;8.63;7.93;;;;;;;21.91;74.71;100954.81;5054767;28;20243;-80
2023/06/22 00:03:35;;;;;;;7.90;7.20;;;;;;;21.89;75.20;100964.69;5054347;28;20209;-79
2023/06/22 00:06:01;;;;;;;9.00;8.50;;;;;;;21.87;74.82;100947.97;5055896;28;20351;-81
2023/06/22 00:08:28;;;;;;;8.03;7.53;;;;;;;21.84;75.23;100950.78;5054482;28;20255;-81
2023/06/22 00:10:54;;;;;;;8.53;8.03;;;;;;;21.84;75.25;100959.63;5062262;28;20235;-79
2023/06/22 00:13:22;;;;;;;8.57;8.07;;;;;;;21.83;74.89;100962.38;5056231;28;20212;-79
2023/06/22 00:15:48;;;;;;;8.73;8.13;;;;;;;21.80;75.14;100966.94;5055860;28;20220;-80
2023/06/22 00:18:15;;;;;;;8.27;7.77;;;;;;;21.77;75.32;100972.41;5055592;28;20702;-81
2023/06/22 00:20:42;;;;;;;8.37;7.87;;;;;;;21.74;75.28;100971.72;5053480;28;20205;-80
2023/06/22 00:23:09;;;;;;;9.33;8.43;;;;;;;21.71;75.81;100975.44;5056278;28;20198;-80
2023/06/22 00:25:35;;;;;;;8.50;7.90;;;;;;;21.66;75.77;100973.97;5055881;28;20262;-80
2023/06/22 00:28:02;;;;;;;7.33;6.63;;;;;;;21.66;75.85;100966.00;5056114;28;20202;-81
2023/06/22 00:30:31;;;;;;;8.80;7.90;;;;;;;21.63;75.73;100958.22;5057294;28;20205;-82
2023/06/22 00:32:58;;;;;;;8.30;7.80;;;;;;;21.48;75.95;100965.25;5056396;28;20205;-80
2023/06/22 00:35:28;;;;;;;8.07;7.37;;;;;;;21.37;76.57;100961.34;5056654;28;20205;-80
2023/06/22 00:38:00;;;;;;;7.77;7.27;;;;;;;21.35;76.26;100957.94;5055796;28;20217;-82
2023/06/22 00:40:26;;;;;;;8.03;7.53;;;;;;;21.34;76.54;100939.41;5048351;28;20250;-80
2023/06/22 00:42:53;;;;;;;7.40;6.90;;;;;;;21.37;76.80;100937.47;5055511;28;20198;-84
2023/06/22 00:45:19;;;;;;;8.33;7.83;;;;;;;21.33;76.98;100927.94;5055684;28;20256;-82
2023/06/22 00:47:47;;;;;;;7.70;7.20;;;;;;;21.27;77.42;100914.13;5055708;28;20785;-83
2023/06/22 00:50:20;;;;;;;7.73;7.33;;;;;;;21.25;77.36;100910.72;5043334;28;20247;-84
2023/06/22 00:52:48;;;;;;;8.80;8.20;;;;;;;21.20;77.37;100908.31;5045354;28;20213;-80
2023/06/22 00:55:17;;;;;;;8.27;7.77;;;;;;;21.12;77.22;100911.41;5054720;28;20202;-80
2023/06/22 00:57:44;;;;;;;8.67;8.17;;;;;;;21.09;77.94;100893.00;5055547;28;20225;-82
2023/06/22 01:00:17;;;;;;;8.37;7.87;;;;;;;21.04;78.38;100892.41;5054908;28;20272;-80
2023/06/22 01:02:45;;;;;;;7.83;7.33;;;;;;;21.01;78.36;100864.25;5055997;28;20679;-80
2023/06/22 01:05:13;;;;;;;8.33;7.73;;;;;;;21.05;77.71;100887.94;5055171;28;20202;-81
2023/06/22 01:07:47;;;;;;;7.93;7.33;;;;;;;20.99;77.56;100894.44;5053954;28;20226;-80
2023/06/22 01:10:20;;;;;;;8.80;8.13;;;;;;;20.96;78.13;100890.16;5055291;28;20208;-82
2023/06/22 01:12:52;;;;;;;8.50;7.90;;;;;;;20.92;78.17;100890.44;5054786;28;20263;-80
2023/06/22 01:15:24;;;;;;;8.37;7.77;;;;;;;20.92;78.25;100883.31;5055100;28;20247;-81
2023/06/22 01:17:53;;;;;;;8.90;8.30;;;;;;;20.84;78.64;100882.88;5054242;28;20707;-80
2023/06/22 01:20:22;;;;;;;8.27;7.77;;;;;;;20.86;78.60;100869.53;5042539;28;20247;-80
2023/06/22 01:23:04;;;;;;;8.57;8.07;;;;;;;20.83;78.72;100879.38;5054391;28;20279;-80
2023/06/22 01:25:44;;;;;;;8.00;7.50;;;;;;;20.78;78.87;100857.53;5053614;28;20645;-80
2023/06/22 01:28:23;;;;;;;8.33;7.73;;;;;;;20.75;78.73;100865.69;5054802;28;20197;-82
2023/06/22 01:31:05;;;;;;;8.43;7.90;;;;;;;20.65;79.29;100861.78;5055088;28;20236;-81
2023/06/22 01:33:35;;;;;;;9.27;8.50;;;;;;;20.51;79.91;100862.50;5054472;28;20209;-80
2023/06/22 01:36:03;;;;;;;7.93;7.43;;;;;;;20.54;79.77;100859.69;5054273;28;20221;-81
2023/06/22 01:38:31;;;;;;;8.87;8.33;;;;;;;20.53;80.05;100846.53;5054170;28;20287;-83
2023/06/22 01:40:58;;;;;;;8.57;7.97;;;;;;;20.50;80.17;100842.25;5054478;28;20205;-82
2023/06/22 01:43:26;;;;;;;8.90;8.20;;;;;;;20.47;79.78;100855.66;5054336;28;20201;-80
2023/06/22 01:45:54;;;;;;;9.00;8.47;;;;;;;20.45;80.18;100854.88;5054491;28;20254;-80
2023/06/22 01:48:22;;;;;;;10.23;9.53;;;;;;;20.44;81.13;100829.31;5052570;28;20202;-80
2023/06/22 01:50:48;;;;;;;8.77;7.97;;;;;;;20.51;81.76;100816.56;5051002;28;20639;-80
2023/06/22 01:53:14;;;;;;;8.90;8.40;;;;;;;20.52;81.79;100800.59;5046975;28;20251;-79
2023/06/22 01:55:41;;;;;;;8.80;8.10;;;;;;;20.57;80.53;100824.19;5054662;28;20262;-80
2023/06/22 01:58:07;;;;;;;8.60;8.00;;;;;;;20.50;80.88;100817.53;5054280;28;20655;-80
2023/06/22 02:00:37;;;;;;;8.00;7.50;;;;;;;20.47;81.21;100818.53;5054730;28;20225;-82
2023/06/22 02:03:11;;;;;;;9.10;8.40;;;;;;;20.41;81.65;100818.88;5053827;28;20205;-83
2023/06/22 02:05:42;;;;;;;9.80;9.00;;;;;;;20.32;82.07;100808.78;5053960;28;20211;-81
2023/06/22 02:08:12;;;;;;;9.03;8.43;;;;;;;20.30;81.70;100816.81;5038206;28;20205;-81
2023/06/22 02:10:41;;;;;;;9.13;8.50;;;;;;;20.29;81.76;100815.06;5056327;28;20286;-82
2023/06/22 02:13:09;;;;;;;8.57;7.77;;;;;;;20.28;82.10;100805.44;5053984;28;20220;-83
2023/06/22 02:15:37;;;;;;;9.17;8.57;;;;;;;20.30;82.98;100795.59;5053483;28;20204;-81
2023/06/22 02:18:03;;;;;;;9.77;9.07;;;;;;;20.33;83.77;100782.16;5053641;28;20198;-81
2023/06/22 02:20:31;;;;;;;8.73;7.87;;;;;;;20.34;83.70;100773.28;5050048;28;20229;-82
2023/06/22 02:22:58;;;;;;;9.80;9.00;;;;;;;20.36;83.44;100779.34;5053477;28;20236;-83
2023/06/22 02:25:24;;;;;;;10.43;9.73;;;;;;;20.23;84.09;100778.28;5049100;28;20271;-83
2023/06/22 02:27:50;;;;;;;9.43;8.73;;;;;;;20.22;82.97;100790.69;5052825;28;20287;-82
2023/06/22 02:30:17;;;;;;;10.87;9.97;;;;;;;20.21;82.60;100796.91;5054962;28;20593;-82
2023/06/22 02:32:43;;;;;;;13.73;11.87;;;;;;;19.95;82.36;100821.31;5054311;28;20217;-82
2023/06/22 02:35:10;;;;;;;11.93;10.67;;;;;;;19.97;82.48;100814.13;5055064;28;20256;-82
2023/06/22 02:37:41;;;;;;;11.80;10.77;;;;;;;19.91;82.41;100823.25;5060113;28;20282;-79
2023/06/22 02:40:08;;;;;;;10.50;9.70;;;;;;;19.89;82.51;100841.03;5071414;28;20253;-79
2023/06/22 02:42:35;;;;;;;22.60;10.43;;;;;;;19.82;83.13;100842.25;5062876;28;20583;-80
2023/06/22 02:45:01;;;;;;;10.97;10.07;;;;;;;19.86;83.69;100827.06;5057620;28;20205;-82
2023/06/22 02:47:28;;;;;;;10.33;9.47;;;;;;;19.89;84.07;100818.97;5056874;28;20233;-81
2023/06/22 02:49:54;;;;;;;10.03;9.23;;;;;;;19.78;84.40;100814.22;5051729;28;20235;-81
2023/06/22 02:52:20;;;;;;;9.60;8.80;;;;;;;19.83;83.83;100822.78;5051050;28;20206;-80
2023/06/22 02:54:48;;;;;;;9.87;9.03;;;;;;;19.78;84.48;100823.03;5049167;28;20289;-82
2023/06/22 02:57:14;;;;;;;9.97;9.00;;;;;;;19.60;86.99;100789.50;5057786;28;20224;-81
2023/06/22 02:59:41;;;;;;;10.23;9.50;;;;;;;19.42;89.19;100738.34;5056899;28;20231;-82
2023/06/22 03:02:08;;;;;;;10.33;9.67;;;;;;;19.54;89.29;100713.88;5041835;28;20583;-80
2023/06/22 03:04:35;;;;;;;9.30;8.47;;;;;;;19.66;88.10;100733.56;5058138;28;20205;-82
2023/06/22 03:07:01;;;;;;;10.50;9.80;;;;;;;19.69;87.93;100746.66;5057855;28;20229;-80
2023/06/22 03:09:29;;;;;;;10.03;9.43;;;;;;;19.69;88.17;100754.59;5057682;28;20208;-82
2023/06/22 03:11:57;;;;;;;9.73;9.13;;;;;;;19.77;88.28;100820.47;5057613;28;20258;-82
2023/06/22 03:14:23;;;;;;;11.70;10.63;;;;;;;19.63;91.61;100745.19;5058068;28;20213;-81
2023/06/22 03:16:49;;;;;;;10.20;9.20;;;;;;;19.72;90.43;100727.13;5058193;28;20714;-81
2023/06/22 03:19:16;;;;;;;9.80;9.17;;;;;;;19.78;89.84;100743.56;5053463;28;20745;-83
2023/06/22 03:21:42;;;;;;;9.70;8.90;;;;;;;19.81;89.18;100759.28;5041843;28;20238;-82
2023/06/22 03:24:09;;;;;;;9.13;8.53;;;;;;;19.84;88.39;100763.56;5041245;28;20251;-82
2023/06/22 03:26:35;;;;;;;9.43;8.83;;;;;;;19.83;88.05;100791.00;5058594;28;20248;-82
2023/06/22 03:29:04;;;;;;;9.23;8.63;;;;;;;19.87;88.34;100781.97;5057515;28;20885;-82
2023/06/22 03:31:30;;;;;;;10.23;9.53;;;;;;;19.91;88.23;100795.91;5059069;28;20202;-82
2023/06/22 03:33:56;;;;;;;10.73;10.03;;;;;;;19.89;88.80;100803.09;5058481;28;20251;-82
2023/06/22 03:36:23;;;;;;;10.53;9.63;;;;;;;19.83;89.38;100789.22;5058159;28;20844;-82
2023/06/22 03:38:50;;;;;;;9.80;9.10;;;;;;;19.89;88.80;100798.63;5050335;28;20219;-82
2023/06/22 03:41:17;;;;;;;10.17;9.37;;;;;;;19.91;89.22;100778.22;5058655;28;20206;-83
2023/06/22 03:43:43;;;;;;;9.87;9.10;;;;;;;19.93;89.12;100775.50;5058518;28;20237;-82
2023/06/22 03:46:11;;;;;;;9.57;8.93;;;;;;;19.97;88.36;100787.63;5059539;28;20714;-82
2023/06/22 03:48:38;;;;;;;9.53;8.93;;;;;;;19.98;89.14;100781.38;5055089;28;20259;-82
2023/06/22 03:51:05;;;;;;;11.57;10.87;;;;;;;20.04;88.87;100781.09;5059406;28;20209;-82
2023/06/22 03:53:31;;;;;;;10.33;9.63;;;;;;;20.05;88.63;100780.13;5061224;28;20205;-81
2023/06/22 03:55:58;;;;;;;10.70;9.93;;;;;;;20.06;88.61;100776.56;5071614;28;20253;-79
2023/06/22 03:58:24;;;;;;;11.73;10.83;;;;;;;20.16;88.61;100784.88;5071401;28;20202;-80
2023/06/22 04:00:52;;;;;;;10.87;10.07;;;;;;;20.14;88.82;100779.66;5072390;28;20263;-80
2023/06/22 04:03:20;;;;;;;11.07;10.17;;;;;;;20.14;88.96;100786.75;5071689;28;20224;-81
2023/06/22 04:05:47;;;;;;;11.90;10.67;;;;;;;20.14;87.94;100792.91;5062943;28;20205;-82
2023/06/22 04:08:14;;;;;;;11.07;10.17;;;;;;;20.11;88.28;100792.22;5055978;28;20208;-81
2023/06/22 04:10:40;;;;;;;11.77;10.77;;;;;;;20.12;87.67;100796.56;5056296;28;20209;-82
2023/06/22 04:13:07;;;;;;;10.90;10.10;;;;;;;20.18;87.77;100799.75;5056638;28;20206;-80
2023/06/22 04:15:33;;;;;;;10.93;10.23;;;;;;;20.19;88.24;100808.56;5055958;28;20234;-81
2023/06/22 04:18:00;;;;;;;12.13;11.33;;;;;;;20.17;88.60;100803.31;5056657;28;20217;-80
2023/06/22 04:20:27;;;;;;;11.40;10.70;;;;;;;20.11;89.62;100785.09;5051419;28;20232;-82
2023/06/22 04:22:54;;;;;;;10.83;10.00;;;;;;;20.17;88.76;100790.06;5039360;28;20243;-81
2023/06/22 04:25:21;;;;;;;12.93;11.40;;;;;;;20.18;88.73;100797.09;5056161;28;20204;-82
2023/06/22 04:27:48;;;;;;;11.43;10.37;;;;;;;20.18;89.18;100799.75;5054686;28;20226;-82
2023/06/22 04:30:16;;;;;;;11.37;10.53;;;;;;;20.17;89.30;100795.38;5054882;28;20209;-82
2023/06/22 04:32:42;;;;;;;10.50;9.67;;;;;;;20.23;89.19;100795.03;5054276;28;20209;-79
2023/06/22 04:35:09;;;;;;;11.13;10.23;;;;;;;20.24;88.63;100799.41;5055878;28;20197;-81
2023/06/22 04:37:39;;;;;;;11.90;10.70;;;;;;;20.28;88.51;100805.44;5055584;28;20225;-80
2023/06/22 04:40:06;;;;;;;12.90;11.67;;;;;;;20.29;88.68;100806.28;5055004;28;20225;-80
2023/06/22 04:42:35;;;;;;;14.03;12.73;;;;;;;20.24;89.29;100793.28;5055070;28;20224;-81
2023/06/22 04:45:01;;;;;;;14.27;12.33;;;;;;;20.22;89.94;100784.56;5054605;28;20267;-80
2023/06/22 04:47:34;;;;;;;13.10;11.23;;;;;;;20.23;90.07;100778.28;5056131;28;20237;-80
2023/06/22 04:50:05;;;;;;;12.43;11.33;;;;;;;20.27;90.72;100769.22;5050760;28;20201;-81
2023/06/22 04:52:32;;;;;;;11.13;10.10;;;;;;;20.32;90.91;100769.00;5054881;28;20244;-82
2023/06/22 04:55:00;;;;;;;20.17;10.57;;;;;;;20.36;90.09;100767.91;5056628;28;20252;-82
2023/06/22 04:57:32;;;;;;;13.67;12.57;;;;;;;20.42;89.30;100780.81;5056874;28;20288;-80
2023/06/22 05:00:01;;;;;;;14.27;13.17;;;;;;;20.50;88.19;100791.00;5056722;28;20229;-81
2023/06/22 05:02:31;;;;;;;14.13;12.90;;;;;;;20.54;87.92;100811.13;5056271;28;20328;-81
2023/06/22 05:04:59;;;;;;;14.57;13.47;;;;;;;20.56;87.80;100822.50;5055892;28;20232;-82
2023/06/22 05:07:26;;;;;;;14.53;13.33;;;;;;;20.60;87.58;100832.03;5047827;28;20245;-80
2023/06/22 05:09:52;;;;;;;13.63;12.70;;;;;;;20.65;87.31;100829.97;5045259;28;20224;-83
2023/06/22 05:12:20;;;;;;;14.87;13.87;;;;;;;20.66;87.91;100825.53;5056305;28;20726;-83
2023/06/22 05:14:46;;;;;;;15.37;14.23;;;;;;;20.72;87.34;100826.03;5055692;28;20209;-83
2023/06/22 05:17:13;;;;;;;15.20;14.10;;;;;;;20.76;87.03;100840.84;5055964;28;20241;-84
2023/06/22 05:19:39;;;;;;;14.33;13.13;;;;;;;20.81;87.18;100835.28;5050589;28;20671;-83
2023/06/22 05:22:06;;;;;;;14.50;13.30;;;;;;;20.86;86.93;100832.38;5047974;28;20209;-83
2023/06/22 05:24:32;;;;;;;14.93;13.73;;;;;;;20.89;86.73;100830.44;5055281;28;20235;-84
2023/06/22 05:26:59;;;;;;;15.30;14.20;;;;;;;20.92;86.51;100837.34;5055780;28;20225;-81
2023/06/22 05:29:27;;;;;;;16.47;15.27;;;;;;;20.96;86.46;100841.53;5056330;28;20256;-83
2023/06/22 05:31:53;;;;;;;15.27;14.17;;;;;;;21.01;86.18;100842.16;5055472;28;20205;-83
2023/06/22 05:34:19;;;;;;;15.70;14.57;;;;;;;21.04;85.79;100852.59;5056005;28;20213;-82
2023/06/22 05:36:46;;;;;;;16.73;15.40;;;;;;;21.05;85.82;100851.66;5055954;28;20240;-83
2023/06/22 05:39:13;;;;;;;16.53;15.10;;;;;;;21.07;85.93;100849.78;5055562;28;20259;-78
2023/06/22 05:41:39;;;;;;;16.67;15.27;;;;;;;21.08;86.11;100870.03;5056380;28;20224;-82
2023/06/22 05:44:06;;;;;;;15.87;14.47;;;;;;;21.10;85.70;100851.38;5056316;28;20275;-84
2023/06/22 05:46:33;;;;;;;16.13;14.87;;;;;;;21.11;86.05;100861.03;5055373;28;20271;-84
2023/06/22 05:49:00;;;;;;;15.73;14.53;;;;;;;21.12;86.05;100855.66;5049529;28;20244;-82
2023/06/22 05:51:26;;;;;;;16.73;15.43;;;;;;;21.11;85.97;100853.09;5041042;28;20201;-83
2023/06/22 05:53:53;;;;;;;16.73;15.37;;;;;;;21.11;86.05;100853.97;5054554;28;20625;-81
2023/06/22 05:56:19;;;;;;;15.67;14.50;;;;;;;21.14;86.86;100853.78;5055854;28;20738;-83
2023/06/22 05:58:46;;;;;;;15.60;14.50;;;;;;;21.16;86.11;100854.53;5055385;28;20208;-83
2023/06/22 06:01:14;;;;;;;15.27;14.10;;;;;;;21.20;85.17;100871.16;5055077;28;20221;-81
2023/06/22 06:03:44;;;;;;;14.20;13.13;;;;;;;21.23;85.08;100884.28;5058057;28;20260;-82
2023/06/22 06:16:19;;;;;;;14.00;12.93;;;;;;;21.42;84.24;100894.69;4979937;28;20295;-81
2023/06/22 06:29:24;;;;;;;15.07;13.93;;;;;;;21.67;83.01;100909.28;5000969;28;20214;-85
2023/06/22 06:32:14;;;;;;;14.70;13.20;;;;;;;21.70;82.62;100907.25;5005519;28;20683;-81
2023/06/22 06:34:45;;;;;;;14.40;13.40;;;;;;;21.73;82.66;100912.41;4993501;28;20693;-81
2023/06/22 06:37:12;;;;;;;15.47;14.27;;;;;;;21.75;81.83;100925.63;5041664;28;20240;-80
2023/06/22 06:39:38;;;;;;;13.90;12.60;;;;;;;21.79;81.94;100924.50;5054916;28;20699;-81
2023/06/22 06:42:06;;;;;;;13.20;12.20;;;;;;;21.84;81.78;100934.84;5055653;28;20589;-83
2023/06/22 06:44:39;;;;;;;13.47;12.37;;;;;;;21.89;81.62;100944.28;5054759;28;20271;-80
2023/06/22 06:47:08;;;;;;;14.77;13.67;;;;;;;21.88;81.77;100939.88;5055114;28;20278;-82
2023/06/22 06:49:35;;;;;;;14.40;13.37;;;;;;;21.91;81.95;100925.59;5051998;28;20245;-82
2023/06/22 06:52:01;;;;;;;14.40;13.37;;;;;;;21.98;82.31;100921.59;5035886;28;20210;-81
2023/06/22 06:54:28;;;;;;;15.27;13.73;;;;;;;22.02;82.27;100917.81;5047487;28;20236;-83
2023/06/22 06:56:54;;;;;;;15.37;13.97;;;;;;;22.06;81.86;100922.03;5054929;28;20229;-81
2023/06/22 06:59:20;;;;;;;13.57;12.63;;;;;;;22.11;81.12;100932.38;5055104;28;20255;-82
2023/06/22 07:01:48;;;;;;;14.03;12.83;;;;;;;22.17;80.83;100935.53;5054787;28;20221;-81
2023/06/22 07:04:15;;;;;;;14.70;13.40;;;;;;;22.17;80.95;100937.31;5055510;28;20216;-81
2023/06/22 07:06:41;;;;;;;12.97;12.07;;;;;;;22.19;81.43;100936.28;5055189;28;20229;-83
2023/06/22 07:09:08;;;;;;;12.73;11.67;;;;;;;22.26;80.18;100942.13;5054180;28;20206;-81
2023/06/22 07:11:36;;;;;;;13.37;12.47;;;;;;;22.33;79.72;100959.44;5056002;28;20209;-82
2023/06/22 07:14:02;;;;;;;12.63;11.63;;;;;;;22.37;78.91;100995.53;5059818;28;20210;-80
2023/06/22 07:16:29;;;;;;;13.50;12.50;;;;;;;22.41;78.77;100999.72;5046393;28;20229;-79
2023/06/22 07:18:57;;;;;;;12.77;11.70;;;;;;;22.45;77.31;101023.50;5055134;28;20232;-79
2023/06/22 07:21:23;;;;;;;12.00;11.00;;;;;;;22.52;77.82;101024.84;5040285;28;20225;-79
2023/06/22 07:23:50;;;;;;;12.53;11.27;;;;;;;22.57;76.40;101041.38;5054201;28;20255;-81
2023/06/22 07:26:16;;;;;;;12.47;11.27;;;;;;;22.62;76.21;101057.09;5055697;28;20229;-82
2023/06/22 07:28:43;;;;;;;11.33;10.60;;;;;;;22.67;76.27;101060.31;5054547;28;20212;-81
2023/06/22 07:31:09;;;;;;;13.00;11.50;;;;;;;22.69;76.88;101031.81;5054771;28;20202;-83
2023/06/22 07:33:35;;;;;;;11.93;11.03;;;;;;;22.68;77.38;101032.78;5054249;28;20205;-80
2023/06/22 07:36:07;;;;;;;14.07;12.20;;;;;;;22.70;77.07;101018.41;5055222;28;20225;-81
2023/06/22 07:38:34;;;;;;;11.80;10.90;;;;;;;22.73;76.66;101030.66;5054548;28;20583;-82
2023/06/22 07:41:00;;;;;;;11.60;10.80;;;;;;;22.70;76.14;101046.84;5055013;28;20229;-80
2023/06/22 07:43:26;;;;;;;11.63;10.83;;;;;;;22.70;75.86;101062.81;5054479;28;20201;-81
2023/06/22 07:45:53;;;;;;;10.50;9.50;;;;;;;22.66;77.07;101050.63;5073666;28;20232;-80
2023/06/22 07:48:21;;;;;;;11.67;10.87;;;;;;;22.68;77.38;101027.44;5059989;28;20205;-83
2023/06/22 07:50:47;;;;;;;11.17;10.37;;;;;;;22.73;76.93;101028.84;5048524;28;20201;-82
2023/06/22 07:53:15;;;;;;;12.17;11.27;;;;;;;22.79;75.81;101048.94;5054232;28;20267;-83
2023/06/22 07:55:41;;;;;;;12.73;11.27;;;;;;;22.80;76.20;101043.53;5054408;28;20201;-81
2023/06/22 07:58:07;;;;;;;12.43;11.57;;;;;;;22.77;76.76;101038.41;5054514;28;20213;-84
2023/06/22 08:00:34;;;;;;;11.90;11.00;;;;;;;22.78;77.13;101025.94;5054743;28;20598;-84
2023/06/22 08:03:04;;;;;;;11.97;11.07;;;;;;;22.83;77.25;101018.50;5054587;28;20224;-81
2023/06/22 08:05:31;;;;;;;12.70;11.40;;;;;;;22.88;76.80;101013.78;5054439;28;20292;-81
2023/06/22 08:07:58;;;;;;;11.93;10.93;;;;;;;22.88;76.48;101020.91;5052985;28;20710;-82
2023/06/22 08:10:26;;;;;;;11.67;10.43;;;;;;;22.86;75.08;101036.97;5054741;28;20265;-83
2023/06/22 08:12:52;;;;;;;11.27;10.27;;;;;;;22.86;74.81;101068.06;5054930;28;20215;-82
2023/06/22 08:15:19;;;;;;;10.90;9.87;;;;;;;22.83;75.27;101062.91;5054358;28;20304;-81
2023/06/22 08:17:45;;;;;;;10.90;9.97;;;;;;;22.82;75.96;101054.09;5054254;28;20225;-82
2023/06/22 08:20:12;;;;;;;12.43;10.33;;;;;;;22.87;75.92;101059.97;5047503;28;20569;-81
2023/06/22 08:22:39;;;;;;;11.27;10.57;;;;;;;22.93;74.49;101061.41;5055011;28;20200;-82
2023/06/22 08:25:07;;;;;;;11.60;10.73;;;;;;;22.96;75.00;101070.06;5056195;28;20205;-86
2023/06/22 08:27:35;;;;;;;11.97;10.93;;;;;;;23.02;75.52;101062.66;5057791;28;20225;-84
2023/06/22 08:30:02;;;;;;;11.17;10.37;;;;;;;23.02;75.62;101057.34;5053045;28;20296;-84
2023/06/22 08:32:29;;;;;;;11.77;10.67;;;;;;;23.05;75.54;101054.50;5045697;28;20220;-84
2023/06/22 08:34:56;;;;;;;11.17;10.27;;;;;;;23.08;75.74;101047.19;5053613;28;20251;-81
2023/06/22 08:37:30;;;;;;;11.80;11.00;;;;;;;23.13;75.13;101047.78;5037201;28;20303;-81
2023/06/22 08:39:56;;;;;;;11.40;10.60;;;;;;;23.15;74.90;101064.50;5054218;28;20591;-81
2023/06/22 08:42:23;;;;;;;13.40;12.03;;;;;;;23.16;74.30;101076.00;5050791;28;20235;-81
2023/06/22 08:44:51;;;;;;;11.53;10.73;;;;;;;23.13;74.27;101078.84;5048511;28;20209;-82
2023/06/22 08:47:17;;;;;;;10.43;9.73;;;;;;;23.13;74.89;101074.41;5053691;28;20260;-82
2023/06/22 08:49:44;;;;;;;11.87;10.97;;;;;;;23.15;74.87;101063.63;5051011;28;20206;-82
2023/06/22 08:52:10;;;;;;;11.07;10.17;;;;;;;23.13;74.80;101062.88;5054310;28;20198;-81
2023/06/22 08:54:36;;;;;;;11.57;10.77;;;;;;;23.18;74.35;101058.97;5054304;28;20206;-80
2023/06/22 08:57:03;;;;;;;10.73;10.00;;;;;;;23.20;74.05;101062.41;5055581;28;20225;-81
2023/06/22 08:59:29;;;;;;;10.90;10.20;;;;;;;23.24;74.02;101065.75;5053853;28;20255;-81
2023/06/22 09:01:59;;;;;;;11.20;10.30;;;;;;;23.28;73.80;101074.41;5046045;28;20222;-82
2023/06/22 09:04:26;;;;;;;11.33;10.60;;;;;;;23.33;74.12;101067.84;5038488;28;20205;-82
2023/06/22 09:06:52;;;;;;;11.07;10.07;;;;;;;23.36;73.71;101066.78;5055016;28;20225;-83
2023/06/22 09:09:19;;;;;;;10.90;9.77;;;;;;;23.41;74.13;101051.38;5054172;28;20217;-83
2023/06/22 09:11:46;;;;;;;11.83;10.93;;;;;;;23.45;74.04;101039.56;5055044;28;20208;-84
2023/06/22 09:14:13;;;;;;;11.67;10.87;;;;;;;23.53;73.61;101042.59;5054727;28;20205;-81
2023/06/22 09:16:39;;;;;;;10.70;9.97;;;;;;;23.61;73.60;101034.13;5056059;28;20752;-82
2023/06/22 09:19:07;;;;;;;11.30;10.50;;;;;;;23.73;74.05;101019.13;5056329;28;20228;-81
2023/06/22 09:21:33;;;;;;;12.47;11.47;;;;;;;23.85;72.67;101031.69;5047450;28;20225;-81
2023/06/22 09:24:00;;;;;;;11.30;10.60;;;;;;;23.93;72.62;101044.53;5045444;28;20213;-82
2023/06/22 09:26:26;;;;;;;11.17;10.37;;;;;;;23.97;72.17;101068.22;5055583;28;20281;-81
2023/06/22 09:28:52;;;;;;;11.50;10.70;;;;;;;23.96;71.96;101077.19;5055064;28;20209;-83
2023/06/22 09:31:25;;;;;;;12.40;11.47;;;;;;;23.99;71.00;101106.31;5055936;28;20198;-82
2023/06/22 09:33:51;;;;;;;12.60;11.60;;;;;;;23.97;71.69;101110.91;5055713;28;20228;-81
2023/06/22 09:36:19;;;;;;;12.00;11.10;;;;;;;24.01;72.11;101100.88;5054766;28;20602;-83
2023/06/22 09:38:45;;;;;;;12.77;11.87;;;;;;;24.06;72.44;101077.41;5054887;28;20205;-83
2023/06/22 09:41:12;;;;;;;13.77;12.47;;;;;;;24.12;71.72;101085.06;5047354;28;20277;-84
2023/06/22 09:43:38;;;;;;;13.33;12.30;;;;;;;24.14;71.53;101093.81;5054926;28;20472;-83
2023/06/22 09:46:05;;;;;;;12.83;11.77;;;;;;;24.18;71.76;101081.97;5054461;28;20230;-82
2023/06/22 09:48:32;;;;;;;13.53;12.57;;;;;;;24.26;71.89;101075.25;5056156;28;20263;-82
2023/06/22 09:50:58;;;;;;;14.00;12.67;;;;;;;24.29;71.45;101078.59;5056988;28;20232;-83
2023/06/22 09:53:26;;;;;;;14.17;13.13;;;;;;;24.30;71.33;101061.63;5054517;28;20561;-82
2023/06/22 09:55:52;;;;;;;13.93;12.70;;;;;;;24.42;72.49;101040.41;5054363;28;20201;-82
2023/06/22 09:58:18;;;;;;;14.63;13.43;;;;;;;24.46;72.56;101023.22;5055092;28;20201;-82
2023/06/22 10:00:44;;;;;;;14.57;13.47;;;;;;;24.55;71.13;101036.81;5054056;28;20198;-81
2023/06/22 10:03:11;;;;;;;14.03;13.03;;;;;;;24.65;71.10;101054.88;5045402;28;20209;-81
2023/06/22 10:05:37;;;;;;;14.27;13.13;;;;;;;24.69;71.21;101062.56;5054848;28;20206;-82
2023/06/22 10:08:04;;;;;;;15.30;14.20;;;;;;;24.76;70.73;101071.88;5053622;28;20203;-82
2023/06/22 10:10:31;;;;;;;15.17;14.07;;;;;;;24.78;71.72;101077.13;5054654;28;20249;-83
2023/06/22 10:13:03;;;;;;;15.23;13.70;;;;;;;24.84;71.91;101047.34;5055707;28;20257;-82
2023/06/22 10:15:29;;;;;;;16.03;14.93;;;;;;;24.91;71.21;101061.09;5055454;28;20205;-81
2023/06/22 10:17:56;;;;;;;12.97;12.07;;;;;;;24.96;71.41;101129.28;5055549;28;20244;-81
2023/06/22 10:20:22;;;;;;;15.37;14.27;;;;;;;25.07;71.11;101071.56;5055534;28;20213;-82
2023/06/22 10:22:49;;;;;;;14.33;13.23;;;;;;;25.08;70.66;101098.19;5055240;28;20222;-82
2023/06/22 10:25:15;;;;;;;14.53;13.53;;;;;;;25.16;70.73;101071.78;5047454;28;20224;-84
2023/06/22 10:27:42;;;;;;;15.77;14.43;;;;;;;25.19;70.77;101084.06;5056007;28;20716;-80
2023/06/22 10:30:12;;;;;;;16.90;15.70;;;;;;;25.19;69.58;101100.09;5054380;28;20550;-79
2023/06/22 10:32:39;;;;;;;16.40;15.27;;;;;;;25.18;69.70;101109.09;5051527;28;20217;-80
2023/06/22 10:35:06;;;;;;;15.57;14.50;;;;;;;25.19;69.69;101102.78;5053185;28;20207;-80
2023/06/22 10:37:33;;;;;;;16.80;15.40;;;;;;;25.21;69.88;101083.97;5055858;28;20250;-81
2023/06/22 10:39:59;;;;;;;17.23;16.07;;;;;;;25.22;69.93;101075.88;5056493;28;20202;-79
2023/06/22 10:42:25;;;;;;;17.83;16.43;;;;;;;25.25;69.30;101120.22;5055623;28;20244;-80
2023/06/22 10:44:53;;;;;;;17.90;16.60;;;;;;;25.24;69.32;101084.63;5055400;28;20245;-80
2023/06/22 10:47:19;;;;;;;17.10;15.97;;;;;;;25.26;68.94;101088.06;5055289;28;20229;-80
2023/06/22 10:49:46;;;;;;;17.27;16.17;;;;;;;25.26;68.62;101089.88;5055694;28;20203;-79
2023/06/22 10:52:12;;;;;;;17.13;15.93;;;;;;;25.29;69.10;101078.97;5055561;28;20234;-80
2023/06/22 10:54:38;;;;;;;17.90;16.53;;;;;;;25.33;68.77;101073.31;5054806;28;20199;-80
2023/06/22 10:57:05;;;;;;;17.73;16.63;;;;;;;25.35;68.81;101074.06;5055199;28;20228;-80
2023/06/22 10:59:31;;;;;;;16.00;14.93;;;;;;;25.40;68.90;101075.53;5059619;28;20209;-82
2023/06/22 11:01:59;;;;;;;16.47;15.17;;;;;;;25.49;69.89;101056.16;5056912;28;20283;-81
2023/06/22 11:04:26;;;;;;;16.97;15.77;;;;;;;25.57;69.53;101053.81;5059228;28;20652;-82
2023/06/22 11:06:52;;;;;;;17.17;15.97;;;;;;;25.70;69.27;101059.09;5059134;28;20225;-82
2023/06/22 11:09:20;;;;;;;17.33;15.83;;;;;;;25.89;69.11;101053.28;5056915;28;20204;-80
2023/06/22 11:11:47;;;;;;;17.67;16.57;;;;;;;26.11;69.64;101044.53;5057945;28;20208;-81
2023/06/22 11:14:13;;;;;;;18.80;17.40;;;;;;;26.36;68.45;101054.22;5057018;28;20228;-81
2023/06/22 11:16:40;;;;;;;20.40;18.63;;;;;;;26.53;66.92;101075.22;5058860;28;20248;-83
2023/06/22 11:19:08;;;;;;;19.07;17.57;;;;;;;26.69;66.74;101109.75;5059008;28;20201;-82
2023/06/22 11:21:34;;;;;;;19.40;17.70;;;;;;;26.83;65.84;101129.28;5057837;28;20279;-84
2023/06/22 11:24:01;;;;;;;19.00;17.67;;;;;;;26.98;65.80;101136.16;5055958;28;20625;-83
2023/06/22 11:26:28;;;;;;;21.77;19.60;;;;;;;27.13;65.74;101120.69;5059089;28;20294;-83
2023/06/22 11:28:54;;;;;;;17.83;16.73;;;;;;;27.25;65.42;101117.06;5060847;28;20296;-82
2023/06/22 11:31:20;;;;;;;17.47;16.20;;;;;;;27.45;66.46;101107.47;5057309;28;20271;-83
2023/06/22 11:33:47;;;;;;;18.50;17.17;;;;;;;27.64;64.97;101104.16;5050725;28;20204;-83
2023/06/22 11:36:16;;;;;;;17.67;16.57;;;;;;;27.99;63.08;101148.78;5058868;28;20801;-81